Time,TemperatureF,DewpointF,PressureIn,WindDirection,WindDirectionDegrees,WindSpeedMPH,WindSpeedGustMPH,Humidity,HourlyPrecipIn,Conditions,Clouds,dailyrainin,SoftwareType,DateUTC
2013-01-21 00:00:00,47.3,27.5,30.11,SW,225,0.0,0.0,46,0.00,CLR,,0.00,WeatherDisplay:10.37,2013-01-21 07:00:00,
2013-01-21 00:05:00,47.3,27.5,30.11,SW,225,0.0,0.0,46,0.00,CLR,,0.00,WeatherDisplay:10.37,2013-01-21 07:05:00,
2013-01-21 00:10:00,47.1,27.4,30.10,SW,225,0.0,0.0,46,0.00,CLR,,0.00,WeatherDisplay:10.37,2013-01-21 07:10:00,
2013-01-21 00:15:00,47.1,27.9,30.10,SW,225,0.0,0.0,47,0.00,CLR,,0.00,WeatherDisplay:10.37,2013-01-21 07:15:00,
2013-01-21 00:20:00,47.1,27.9,30.10,SW,225,0.0,0.0,47,0.00,CLR,,0.00,WeatherDisplay:10.37,2013-01-21 07:20:00,
2013-01-21 00:25:00,47.1,27.9,30.10,SW,225,0.0,0.0,47,0.00,CLR,,0.00,WeatherDisplay:10.37,2013-01-21 07:25:00,
2013-01-21 00:30:00,46.9,27.7,30.10,SW,225,0.0,0.0,47,0.00,CLR,,0.00,WeatherDisplay:10.37,2013-01-21 07:30:00,
2013-01-21 00:40:00,46.6,27.4,30.10,SW,225,0.0,0.0,47,0.00,CLR,,0.00,WeatherDisplay:10.37,2013-01-21 07:40:00,
2013-01-21 00:45:00,46.6,27.9,30.10,SW,225,0.0,0.0,48,0.00,CLR,,0.00,WeatherDisplay:10.37,2013-01-21 07:45:00,
2013-01-21 00:50:00,46.6,27.9,30.09,SW,225,0.0,0.0,48,0.00,CLR,,0.00,WeatherDisplay:10.37,2013-01-21 07:50:00,
2013-01-21 01:00:00,46.2,27.6,30.10,SW,225,0.0,0.0,48,0.00,CLR,,0.00,WeatherDisplay:10.37,2013-01-21 08:00:00,
2013-01-21 01:05:00,46.2,27.6,30.10,SW,225,0.0,0.0,48,0.00,CLR,,0.00,WeatherDisplay:10.37,2013-01-21 08:05:00,
2013-01-21 01:10:00,46.2,28.1,30.09,SW,225,0.0,0.0,49,0.00,CLR,,0.00,WeatherDisplay:10.37,2013-01-21 08:10:00,
2013-01-21 01:20:00,46.0,27.9,30.09,SW,225,0.0,0.0,49,0.00,CLR,,0.00,WeatherDisplay:10.37,2013-01-21 08:20:00,
2013-01-21 01:30:00,46.2,28.1,30.09,SW,225,0.0,0.0,49,0.00,CLR,,0.00,WeatherDisplay:10.37,2013-01-21 08:30:00,
2013-01-21 01:35:00,46.2,28.1,30.09,SW,225,0.0,0.0,49,0.00,CLR,,0.00,WeatherDisplay:10.37,2013-01-21 08:35:00,
2013-01-21 01:40:00,46.2,28.1,30.09,SW,225,0.0,0.0,49,0.00,CLR,,0.00,WeatherDisplay:10.37,2013-01-21 08:40:00,
2013-01-21 01:50:00,46.0,27.9,30.09,SW,225,0.0,0.0,49,0.00,CLR,,0.00,WeatherDisplay:10.37,2013-01-21 08:50:00,
2013-01-21 01:55:00,46.0,28.4,30.10,SW,225,0.0,0.0,50,0.00,CLR,,0.00,WeatherDisplay:10.37,2013-01-21 08:55:00,
2013-01-21 02:00:00,45.9,28.3,30.10,SW,225,0.0,0.0,50,0.00,CLR,,0.00,WeatherDisplay:10.37,2013-01-21 09:00:00,
2013-01-21 02:05:00,45.7,28.1,30.10,SW,225,0.0,0.0,50,0.00,CLR,,0.00,WeatherDisplay:10.37,2013-01-21 09:05:00,
2013-01-21 02:10:00,45.5,27.9,30.10,SW,225,0.0,0.0,50,0.00,CLR,,0.00,WeatherDisplay:10.37,2013-01-21 09:10:00,
2013-01-21 02:15:00,45.3,27.8,30.10,SW,225,0.0,0.0,50,0.00,CLR,,0.00,WeatherDisplay:10.37,2013-01-21 09:15:00,
2013-01-21 02:20:00,45.1,27.6,30.10,SW,225,0.0,0.0,50,0.00,CLR,,0.00,WeatherDisplay:10.37,2013-01-21 09:20:00,
2013-01-21 02:25:00,45.0,27.9,30.10,SW,225,0.0,0.0,51,0.00,CLR,,0.00,WeatherDisplay:10.37,2013-01-21 09:25:00,
2013-01-21 02:30:00,44.9,27.8,30.10,SW,225,0.0,0.0,51,0.00,CLR,,0.00,WeatherDisplay:10.37,2013-01-21 09:30:00,
2013-01-21 02:35:00,44.6,27.6,30.10,SW,225,0.0,0.0,51,0.00,CLR,,0.00,WeatherDisplay:10.37,2013-01-21 09:35:00,
2013-01-21 02:40:00,44.4,27.4,30.10,SW,225,0.0,0.0,51,0.00,CLR,,0.00,WeatherDisplay:10.37,2013-01-21 09:40:00,
2013-01-21 02:45:00,44.4,27.8,30.10,SW,225,0.0,0.0,52,0.00,CLR,,0.00,WeatherDisplay:10.37,2013-01-21 09:45:00,
2013-01-21 02:50:00,44.2,27.7,30.10,SW,225,0.0,0.0,52,0.00,CLR,,0.00,WeatherDisplay:10.37,2013-01-21 09:50:00,
2013-01-21 02:55:00,44.2,27.7,30.10,SW,225,0.0,0.0,52,0.00,CLR,,0.00,WeatherDisplay:10.37,2013-01-21 09:55:00,
2013-01-21 03:00:00,44.1,27.5,30.10,SW,225,0.0,0.0,52,0.00,CLR,,0.00,WeatherDisplay:10.37,2013-01-21 10:00:00,
2013-01-21 03:05:00,43.9,27.4,30.10,SW,225,0.0,0.0,52,0.00,CLR,,0.00,WeatherDisplay:10.37,2013-01-21 10:05:00,
2013-01-21 03:10:00,43.9,27.4,30.10,SW,225,0.0,0.0,52,0.00,CLR,,0.00,WeatherDisplay:10.37,2013-01-21 10:10:00,
2013-01-21 03:20:00,43.7,27.2,30.10,SW,225,0.0,0.0,52,0.00,CLR,,0.00,WeatherDisplay:10.37,2013-01-21 10:20:00,
2013-01-21 03:25:00,43.6,27.2,30.10,SW,225,0.0,0.0,52,0.00,CLR,,0.00,WeatherDisplay:10.37,2013-01-21 10:25:00,
2013-01-21 03:30:00,43.5,27.0,30.09,SW,225,0.0,0.0,52,0.00,CLR,,0.00,WeatherDisplay:10.37,2013-01-21 10:30:00,
2013-01-21 03:40:00,43.5,27.0,30.09,SW,225,0.0,0.0,52,0.00,CLR,,0.00,WeatherDisplay:10.37,2013-01-21 10:40:00,
2013-01-21 03:50:00,43.5,27.0,30.09,SW,225,0.0,0.0,52,0.00,CLR,,0.00,WeatherDisplay:10.37,2013-01-21 10:50:00,
2013-01-21 03:55:00,43.3,26.9,30.09,SW,225,0.0,0.0,52,0.00,CLR,,0.00,WeatherDisplay:10.37,2013-01-21 10:55:00,
2013-01-21 04:00:00,43.3,27.3,30.09,SW,225,0.0,0.0,53,0.00,CLR,,0.00,WeatherDisplay:10.37,2013-01-21 11:00:00,
2013-01-21 04:05:00,43.3,27.3,30.08,SW,225,0.0,0.0,53,0.00,CLR,,0.00,WeatherDisplay:10.37,2013-01-21 11:05:00,
2013-01-21 04:10:00,43.3,27.3,30.09,SW,225,0.0,0.0,53,0.00,CLR,,0.00,WeatherDisplay:10.37,2013-01-21 11:10:00,
2013-01-21 04:20:00,43.3,27.3,30.08,SW,225,0.0,0.0,53,0.00,CLR,,0.00,WeatherDisplay:10.37,2013-01-21 11:20:00,
2013-01-21 04:30:00,43.2,27.2,30.08,SW,225,0.0,0.0,53,0.00,CLR,,0.00,WeatherDisplay:10.37,2013-01-21 11:30:00,
2013-01-21 04:35:00,43.2,27.2,30.08,SW,225,0.0,0.0,53,0.00,CLR,,0.00,WeatherDisplay:10.37,2013-01-21 11:35:00,
2013-01-21 04:40:00,43.2,27.2,30.08,SW,225,0.0,0.0,53,0.00,CLR,,0.00,WeatherDisplay:10.37,2013-01-21 11:40:00,
2013-01-21 04:50:00,43.0,27.0,30.08,SW,225,0.0,0.0,53,0.00,CLR,,0.00,WeatherDisplay:10.37,2013-01-21 11:50:00,
2013-01-21 04:55:00,43.0,27.0,30.08,SW,225,0.0,0.0,53,0.00,CLR,,0.00,WeatherDisplay:10.37,2013-01-21 11:55:00,
2013-01-21 05:00:00,43.0,27.0,30.08,SW,225,0.0,0.0,53,0.00,CLR,,0.00,WeatherDisplay:10.37,2013-01-21 12:00:00,
2013-01-21 05:05:00,43.0,27.5,30.08,SW,225,0.0,0.0,54,0.00,CLR,,0.00,WeatherDisplay:10.37,2013-01-21 12:05:00,
2013-01-21 05:10:00,43.0,27.5,30.08,SW,225,0.0,0.0,54,0.00,CLR,,0.00,WeatherDisplay:10.37,2013-01-21 12:10:00,
2013-01-21 05:15:00,43.0,27.5,30.09,SW,225,0.0,0.0,54,0.00,CLR,,0.00,WeatherDisplay:10.37,2013-01-21 12:15:00,
2013-01-21 05:20:00,43.0,27.5,30.09,SW,225,0.0,0.0,54,0.00,CLR,,0.00,WeatherDisplay:10.37,2013-01-21 12:20:00,
2013-01-21 05:25:00,43.0,27.5,30.09,SW,225,0.0,0.0,54,0.00,CLR,,0.00,WeatherDisplay:10.37,2013-01-21 12:25:00,
2013-01-21 05:30:00,43.0,27.5,30.09,SW,225,0.0,0.0,54,0.00,CLR,,0.00,WeatherDisplay:10.37,2013-01-21 12:30:00,
2013-01-21 05:35:00,43.0,27.5,30.08,SW,225,0.0,0.0,54,0.00,CLR,,0.00,WeatherDisplay:10.37,2013-01-21 12:35:00,
2013-01-21 05:45:00,42.6,27.6,30.08,SW,225,0.0,0.0,55,0.00,CLR,,0.00,WeatherDisplay:10.37,2013-01-21 12:45:00,
2013-01-21 05:50:00,42.6,27.6,30.09,SW,225,0.0,0.0,55,0.00,CLR,,0.00,WeatherDisplay:10.37,2013-01-21 12:50:00,
2013-01-21 05:55:00,42.6,27.6,30.08,SW,225,0.0,0.0,55,0.00,CLR,,0.00,WeatherDisplay:10.37,2013-01-21 12:55:00,
2013-01-21 06:05:00,42.8,27.7,30.08,SW,225,0.0,0.0,55,0.00,CLR,,0.00,WeatherDisplay:10.37,2013-01-21 13:05:00,
2013-01-21 06:10:00,42.8,27.7,30.08,SW,225,0.0,0.0,55,0.00,CLR,,0.00,WeatherDisplay:10.37,2013-01-21 13:10:00,
2013-01-21 06:20:00,42.6,27.6,30.08,SW,225,0.0,0.0,55,0.00,CLR,,0.00,WeatherDisplay:10.37,2013-01-21 13:20:00,
2013-01-21 06:30:00,42.6,27.6,30.09,SW,225,0.0,0.0,55,0.00,CLR,,0.00,WeatherDisplay:10.37,2013-01-21 13:30:00,
2013-01-21 06:40:00,42.4,27.4,30.09,SW,225,0.0,0.0,55,0.00,CLR,,0.00,WeatherDisplay:10.37,2013-01-21 13:40:00,
2013-01-21 06:50:00,42.1,27.1,30.09,SW,225,0.0,0.0,55,0.00,CLR,,0.00,WeatherDisplay:10.37,2013-01-21 13:50:00,
2013-01-21 07:00:00,42.1,27.5,30.09,SW,225,0.0,0.0,56,0.00,CLR,,0.00,WeatherDisplay:10.37,2013-01-21 14:00:00,
2013-01-21 07:05:00,42.1,27.5,30.10,SW,225,0.0,0.0,56,0.00,CLR,,0.00,WeatherDisplay:10.37,2013-01-21 14:05:00,
2013-01-21 07:10:00,41.9,27.3,30.10,SW,225,0.0,0.0,56,0.00,CLR,,0.00,WeatherDisplay:10.37,2013-01-21 14:10:00,
2013-01-21 07:15:00,41.9,27.3,30.10,SW,225,0.0,0.0,56,0.00,CLR,,0.00,WeatherDisplay:10.37,2013-01-21 14:15:00,
2013-01-21 07:20:00,41.9,27.3,30.10,SW,225,0.0,0.0,56,0.00,CLR,,0.00,WeatherDisplay:10.37,2013-01-21 14:20:00,
2013-01-21 07:25:00,42.1,27.5,30.10,SW,225,0.0,0.0,56,0.00,CLR,,0.00,WeatherDisplay:10.37,2013-01-21 14:25:00,
2013-01-21 07:30:00,42.1,27.5,30.10,SW,225,0.0,0.0,56,0.00,CLR,,0.00,WeatherDisplay:10.37,2013-01-21 14:30:00,
2013-01-21 07:40:00,42.2,27.6,30.10,SW,225,0.0,0.0,56,0.00,CLR,,0.00,WeatherDisplay:10.37,2013-01-21 14:40:00,
2013-01-21 07:50:00,42.4,27.4,30.10,SW,225,0.0,0.0,55,0.00,CLR,,0.00,WeatherDisplay:10.37,2013-01-21 14:50:00,
2013-01-21 08:00:00,42.6,27.6,30.11,SW,225,0.0,0.0,55,0.00,CLR,,0.00,WeatherDisplay:10.37,2013-01-21 15:00:00,
2013-01-21 08:05:00,43.0,27.9,30.11,SW,225,0.0,0.0,55,0.00,CLR,,0.00,WeatherDisplay:10.37,2013-01-21 15:05:00,
2013-01-21 08:10:00,43.3,28.2,30.11,SW,225,0.0,0.0,55,0.00,CLR,,0.00,WeatherDisplay:10.37,2013-01-21 15:10:00,
2013-01-21 08:20:00,44.1,28.5,30.11,SW,225,0.0,0.0,54,0.00,CLR,,0.00,WeatherDisplay:10.37,2013-01-21 15:20:00,
2013-01-21 08:30:00,45.1,29.4,30.10,SW,225,0.0,0.0,54,0.00,CLR,,0.00,WeatherDisplay:10.37,2013-01-21 15:30:00,
2013-01-21 08:35:00,45.7,30.0,30.11,SW,225,0.0,0.0,54,0.00,CLR,,0.00,WeatherDisplay:10.37,2013-01-21 15:35:00,
2013-01-21 08:40:00,46.2,30.0,30.11,SW,225,0.0,0.0,53,0.00,CLR,,0.00,WeatherDisplay:10.37,2013-01-21 15:40:00,
2013-01-21 08:45:00,47.1,30.8,30.11,SW,225,0.0,0.0,53,0.00,CLR,,0.00,WeatherDisplay:10.37,2013-01-21 15:45:00,
2013-01-21 08:50:00,47.8,31.0,30.12,SW,225,0.0,0.0,52,0.00,CLR,,0.00,WeatherDisplay:10.37,2013-01-21 15:50:00,
2013-01-21 08:55:00,48.4,31.5,30.12,SW,225,0.0,0.0,52,0.00,CLR,,0.00,WeatherDisplay:10.37,2013-01-21 15:55:00,
2013-01-21 09:00:00,49.6,32.2,30.12,SW,225,0.0,0.0,51,0.00,CLR,,0.00,WeatherDisplay:10.37,2013-01-21 16:00:00,
2013-01-21 09:05:00,50.0,32.1,30.12,SW,225,0.0,0.0,50,0.00,CLR,,0.00,WeatherDisplay:10.37,2013-01-21 16:05:00,
2013-01-21 09:10:00,50.6,32.6,30.12,SW,225,0.0,0.0,50,0.00,CLR,,0.00,WeatherDisplay:10.37,2013-01-21 16:10:00,
2013-01-21 09:15:00,51.3,32.2,30.12,SW,225,0.0,0.0,48,0.00,CLR,,0.00,WeatherDisplay:10.37,2013-01-21 16:15:00,
2013-01-21 09:20:00,51.6,32.0,30.12,SSE,167,0.0,0.0,47,0.00,CLR,,0.00,WeatherDisplay:10.37,2013-01-21 16:20:00,
2013-01-21 09:30:00,52.8,32.0,30.13,ESE,106,2.0,4.0,45,0.00,CLR,,0.00,WeatherDisplay:10.37,2013-01-21 16:30:00,
2013-01-21 09:35:00,53.4,32.0,30.13,East,88,2.0,4.0,44,0.00,CLR,,0.00,WeatherDisplay:10.37,2013-01-21 16:35:00,
2013-01-21 09:40:00,54.5,32.5,30.13,ENE,76,0.0,2.0,43,0.00,CLR,,0.00,WeatherDisplay:10.37,2013-01-21 16:40:00,
2013-01-21 09:45:00,55.4,32.1,30.13,ENE,63,0.0,0.0,41,0.00,CLR,,0.00,WeatherDisplay:10.37,2013-01-21 16:45:00,
2013-01-21 09:50:00,56.3,32.9,30.13,East,90,0.0,5.0,41,0.00,CLR,,0.00,WeatherDisplay:10.37,2013-01-21 16:50:00,
2013-01-21 09:55:00,57.2,32.4,30.13,East,91,1.0,3.0,39,0.00,CLR,,0.00,WeatherDisplay:10.37,2013-01-21 16:55:00,
2013-01-21 10:00:00,58.1,32.6,30.14,ENE,73,0.0,0.0,38,0.00,CLR,,0.00,WeatherDisplay:10.37,2013-01-21 17:00:00,
2013-01-21 10:05:00,58.8,33.2,30.14,ENE,75,0.0,0.0,38,0.00,CLR,,0.00,WeatherDisplay:10.37,2013-01-21 17:05:00,
2013-01-21 10:10:00,59.4,33.1,30.15,ENE,72,0.0,3.0,37,0.00,CLR,,0.00,WeatherDisplay:10.37,2013-01-21 17:10:00,
2013-01-21 10:15:00,60.3,33.2,30.15,ENE,68,3.0,5.0,36,0.00,CLR,,0.00,WeatherDisplay:10.37,2013-01-21 17:15:00,
2013-01-21 10:20:00,61.0,33.1,30.15,ENE,62,6.0,7.0,35,0.00,CLR,,0.00,WeatherDisplay:10.37,2013-01-21 17:20:00,
2013-01-21 10:30:00,62.4,33.7,30.15,NE,56,0.0,2.0,34,0.00,CLR,,0.00,WeatherDisplay:10.37,2013-01-21 17:30:00,
2013-01-21 10:40:00,63.3,33.7,30.15,ENE,73,0.0,2.0,33,0.00,CLR,,0.00,WeatherDisplay:10.37,2013-01-21 17:40:00,
2013-01-21 10:50:00,64.5,34.8,30.15,ENE,78,6.0,7.0,33,0.00,CLR,,0.00,WeatherDisplay:10.37,2013-01-21 17:50:00,
2013-01-21 11:00:00,66.0,35.3,30.15,ENE,68,1.0,2.0,32,0.00,CLR,,0.00,WeatherDisplay:10.37,2013-01-21 18:00:00,
2013-01-21 11:05:00,66.6,35.0,30.15,ENE,68,3.0,7.0,31,0.00,CLR,,0.00,WeatherDisplay:10.37,2013-01-21 18:05:00,
2013-01-21 11:10:00,67.0,35.4,30.14,ENE,68,0.0,3.0,31,0.00,CLR,,0.00,WeatherDisplay:10.37,2013-01-21 18:10:00,
2013-01-21 11:15:00,67.6,35.1,30.14,ENE,68,5.0,5.0,30,0.00,CLR,,0.00,WeatherDisplay:10.37,2013-01-21 18:15:00,
2013-01-21 11:20:00,67.8,35.2,30.15,ENE,76,0.0,7.0,30,0.00,CLR,,0.00,WeatherDisplay:10.37,2013-01-21 18:20:00,
2013-01-21 11:25:00,68.2,35.5,30.14,East,83,1.0,4.0,30,0.00,CLR,,0.00,WeatherDisplay:10.37,2013-01-21 18:25:00,
2013-01-21 11:30:00,68.7,36.0,30.14,ENE,78,1.0,3.0,30,0.00,CLR,,0.00,WeatherDisplay:10.37,2013-01-21 18:30:00,
2013-01-21 11:40:00,69.4,35.8,30.14,ENE,60,5.0,7.0,29,0.00,CLR,,0.00,WeatherDisplay:10.37,2013-01-21 18:40:00,
2013-01-21 11:50:00,70.3,36.6,30.14,ENE,57,0.0,9.0,29,0.00,CLR,,0.00,WeatherDisplay:10.37,2013-01-21 18:50:00,
2013-01-21 12:00:00,70.7,35.1,30.14,ENE,68,0.0,6.0,27,0.00,CLR,,0.00,WeatherDisplay:10.37,2013-01-21 19:00:00,
2013-01-21 12:10:00,70.9,35.2,30.13,East,81,0.0,5.0,27,0.00,CLR,,0.00,WeatherDisplay:10.37,2013-01-21 19:10:00,
2013-01-21 12:20:00,71.2,36.4,30.13,SE,142,0.0,2.0,28,0.00,CLR,,0.00,WeatherDisplay:10.37,2013-01-21 19:20:00,
2013-01-21 12:30:00,71.4,36.6,30.12,SE,143,0.0,0.0,28,0.00,CLR,,0.00,WeatherDisplay:10.37,2013-01-21 19:30:00,
2013-01-21 12:40:00,70.9,35.2,30.12,ENE,69,0.0,0.0,27,0.00,CLR,,0.00,WeatherDisplay:10.37,2013-01-21 19:40:00,
2013-01-21 12:45:00,70.9,35.2,30.12,ENE,68,0.0,0.0,27,0.00,CLR,,0.00,WeatherDisplay:10.37,2013-01-21 19:45:00,
2013-01-21 12:50:00,70.7,35.0,30.12,ENE,68,0.0,0.0,27,0.00,CLR,,0.00,WeatherDisplay:10.37,2013-01-21 19:50:00,
2013-01-21 12:55:00,70.5,34.9,30.11,ENE,68,0.0,0.0,27,0.00,CLR,,0.00,WeatherDisplay:10.37,2013-01-21 19:55:00,
2013-01-21 13:00:00,70.5,34.9,30.11,East,99,0.0,0.0,27,0.00,CLR,,0.00,WeatherDisplay:10.37,2013-01-21 20:00:00,
2013-01-21 13:05:00,70.8,35.1,30.11,ESE,114,0.0,0.0,27,0.00,CLR,,0.00,WeatherDisplay:10.37,2013-01-21 20:05:00,
2013-01-21 13:10:00,71.4,35.6,30.10,East,79,2.0,3.0,27,0.00,CLR,,0.00,WeatherDisplay:10.37,2013-01-21 20:10:00,
2013-01-21 13:20:00,72.0,36.1,30.10,ESE,111,0.0,2.0,27,0.00,CLR,,0.00,WeatherDisplay:10.37,2013-01-21 20:20:00,
2013-01-21 13:30:00,71.8,35.0,30.10,ESE,112,0.0,3.0,26,0.00,CLR,,0.00,WeatherDisplay:10.37,2013-01-21 20:30:00,
2013-01-21 13:35:00,71.4,34.7,30.10,SE,131,0.0,0.0,26,0.00,CLR,,0.00,WeatherDisplay:10.37,2013-01-21 20:35:00,
2013-01-21 13:40:00,71.4,35.7,30.10,East,82,0.0,0.0,27,0.00,CLR,,0.00,WeatherDisplay:10.37,2013-01-21 20:40:00,
2013-01-21 13:45:00,71.6,35.9,30.10,ENE,68,0.0,0.0,27,0.00,CLR,,0.00,WeatherDisplay:10.37,2013-01-21 20:45:00,
2013-01-21 13:50:00,71.6,35.8,30.09,ENE,73,0.0,0.0,27,0.00,CLR,,0.00,WeatherDisplay:10.37,2013-01-21 20:50:00,
2013-01-21 13:55:00,71.9,36.1,30.09,ENE,71,1.0,4.0,27,0.00,CLR,,0.00,WeatherDisplay:10.37,2013-01-21 20:55:00,
2013-01-21 14:00:00,72.3,35.5,30.09,WSW,248,3.0,5.0,26,0.00,CLR,,0.00,WeatherDisplay:10.37,2013-01-21 21:00:00,
2013-01-21 14:05:00,73.1,36.1,30.09,WSW,253,0.0,0.0,26,0.00,CLR,,0.00,WeatherDisplay:10.37,2013-01-21 21:05:00,
2013-01-21 14:10:00,73.9,36.9,30.08,NNE,33,0.0,0.0,26,0.00,CLR,,0.00,WeatherDisplay:10.37,2013-01-21 21:10:00,
2013-01-21 14:20:00,74.8,37.6,30.08,ENE,68,0.0,5.0,26,0.00,CLR,,0.00,WeatherDisplay:10.37,2013-01-21 21:20:00,
2013-01-21 14:30:00,74.8,36.6,30.08,ENE,68,5.0,5.0,25,0.00,CLR,,0.00,WeatherDisplay:10.37,2013-01-21 21:30:00,
2013-01-21 14:40:00,74.9,36.7,30.08,ENE,57,2.0,2.0,25,0.00,CLR,,0.00,WeatherDisplay:10.37,2013-01-21 21:40:00,
2013-01-21 14:50:00,74.2,36.1,30.08,ENE,63,0.0,0.0,25,0.00,CLR,,0.00,WeatherDisplay:10.37,2013-01-21 21:50:00,
2013-01-21 15:00:00,73.2,36.3,30.08,ESE,116,0.0,0.0,26,0.00,CLR,,0.00,WeatherDisplay:10.37,2013-01-21 22:00:00,
2013-01-21 15:05:00,73.2,36.3,30.08,WSW,238,0.0,2.0,26,0.00,CLR,,0.00,WeatherDisplay:10.37,2013-01-21 22:05:00,
2013-01-21 15:10:00,73.5,36.5,30.08,WSW,243,0.0,0.0,26,0.00,CLR,,0.00,WeatherDisplay:10.37,2013-01-21 22:10:00,
2013-01-21 15:20:00,74.1,37.0,30.08,WSW,248,0.0,0.0,26,0.00,CLR,,0.00,WeatherDisplay:10.37,2013-01-21 22:20:00,
2013-01-21 15:30:00,75.0,36.8,30.07,West,274,2.0,2.0,25,0.00,CLR,,0.00,WeatherDisplay:10.37,2013-01-21 22:30:00,
2013-01-21 15:40:00,75.7,37.4,30.07,NE,45,0.0,0.0,25,0.00,CLR,,0.00,WeatherDisplay:10.37,2013-01-21 22:40:00,
2013-01-21 15:50:00,75.9,37.6,30.07,NE,45,0.0,0.0,25,0.00,CLR,,0.00,WeatherDisplay:10.37,2013-01-21 22:50:00,
2013-01-21 15:55:00,75.6,37.2,30.07,NE,45,0.0,0.0,25,0.00,CLR,,0.00,WeatherDisplay:10.37,2013-01-21 22:55:00,
2013-01-21 16:00:00,75.4,37.1,30.07,NE,45,0.0,0.0,25,0.00,CLR,,0.00,WeatherDisplay:10.37,2013-01-21 23:00:00,
2013-01-21 16:05:00,75.4,37.1,30.07,North,10,0.0,0.0,25,0.00,CLR,,0.00,WeatherDisplay:10.37,2013-01-21 23:05:00,
2013-01-21 16:10:00,75.0,36.8,30.07,WSW,251,0.0,0.0,25,0.00,CLR,,0.00,WeatherDisplay:10.37,2013-01-21 23:10:00,
2013-01-21 16:20:00,73.9,35.9,30.07,WSW,248,0.0,0.0,25,0.00,CLR,,0.00,WeatherDisplay:10.37,2013-01-21 23:20:00,
2013-01-21 16:25:00,73.6,36.6,30.07,WSW,248,0.0,0.0,26,0.00,CLR,,0.00,WeatherDisplay:10.37,2013-01-21 23:25:00,
2013-01-21 16:30:00,73.2,36.3,30.07,WSW,248,0.0,0.0,26,0.00,CLR,,0.00,WeatherDisplay:10.37,2013-01-21 23:30:00,
2013-01-21 16:35:00,72.9,36.0,30.07,WSW,248,0.0,0.0,26,0.00,CLR,,0.00,WeatherDisplay:10.37,2013-01-21 23:35:00,
2013-01-21 16:40:00,72.7,35.8,30.07,WSW,248,0.0,0.0,26,0.00,CLR,,0.00,WeatherDisplay:10.37,2013-01-21 23:40:00,
2013-01-21 16:45:00,72.2,35.4,30.07,WSW,248,0.0,0.0,26,0.00,CLR,,0.00,WeatherDisplay:10.37,2013-01-21 23:45:00,
2013-01-21 16:50:00,71.8,36.0,30.07,WSW,248,0.0,0.0,27,0.00,CLR,,0.00,WeatherDisplay:10.37,2013-01-21 23:50:00,
2013-01-21 17:00:00,71.3,35.6,30.07,WSW,248,0.0,0.0,27,0.00,CLR,,0.00,WeatherDisplay:10.37,2013-01-22 00:00:00,
2013-01-21 17:05:00,70.9,35.2,30.07,WSW,248,0.0,0.0,27,0.00,CLR,,0.00,WeatherDisplay:10.37,2013-01-22 00:05:00,
2013-01-21 17:10:00,70.7,35.1,30.07,WSW,248,0.0,0.0,27,0.00,CLR,,0.00,WeatherDisplay:10.37,2013-01-22 00:10:00,
2013-01-21 17:15:00,70.2,34.6,30.07,SW,223,0.0,0.0,27,0.00,CLR,,0.00,WeatherDisplay:10.37,2013-01-22 00:15:00,
2013-01-21 17:20:00,69.4,34.9,30.07,East,96,0.0,0.0,28,0.00,CLR,,0.00,WeatherDisplay:10.37,2013-01-22 00:20:00,
2013-01-21 17:30:00,68.4,34.9,30.07,East,90,0.0,0.0,29,0.00,CLR,,0.00,WeatherDisplay:10.37,2013-01-22 00:30:00,
2013-01-21 17:35:00,67.6,34.2,30.07,East,97,1.0,2.0,29,0.00,CLR,,0.00,WeatherDisplay:10.37,2013-01-22 00:35:00,
2013-01-21 17:40:00,66.7,34.3,30.07,SW,221,3.0,4.0,30,0.00,CLR,,0.00,WeatherDisplay:10.37,2013-01-22 00:40:00,
2013-01-21 17:45:00,65.9,33.6,30.07,SW,228,0.0,4.0,30,0.00,CLR,,0.00,WeatherDisplay:10.37,2013-01-22 00:45:00,
2013-01-21 17:50:00,64.8,33.4,30.07,SW,225,0.0,0.0,31,0.00,CLR,,0.00,WeatherDisplay:10.37,2013-01-22 00:50:00,
2013-01-21 18:00:00,63.2,32.8,30.07,SW,225,0.0,0.0,32,0.00,CLR,,0.00,WeatherDisplay:10.37,2013-01-22 01:00:00,
2013-01-21 18:05:00,62.2,32.8,30.07,SW,225,0.0,0.0,33,0.00,CLR,,0.00,WeatherDisplay:10.37,2013-01-22 01:05:00,
2013-01-21 18:10:00,61.5,32.9,30.08,SW,225,0.0,0.0,34,0.00,CLR,,0.00,WeatherDisplay:10.37,2013-01-22 01:10:00,
2013-01-21 18:20:00,60.2,31.7,30.08,SW,225,0.0,0.0,34,0.00,CLR,,0.00,WeatherDisplay:10.37,2013-01-22 01:20:00,
2013-01-21 18:30:00,59.1,31.4,30.09,SW,214,2.0,2.0,35,0.00,CLR,,0.00,WeatherDisplay:10.37,2013-01-22 01:30:00,
2013-01-21 18:35:00,58.8,31.9,30.08,SSW,209,0.0,0.0,36,0.00,CLR,,0.00,WeatherDisplay:10.37,2013-01-22 01:35:00,
2013-01-21 18:40:00,58.5,31.6,30.09,SW,214,0.0,0.0,36,0.00,CLR,,0.00,WeatherDisplay:10.37,2013-01-22 01:40:00,
2013-01-21 18:45:00,58.1,31.9,30.09,SSW,212,0.0,3.0,37,0.00,CLR,,0.00,WeatherDisplay:10.37,2013-01-22 01:45:00,
2013-01-21 18:55:00,57.6,31.5,30.09,SSW,206,2.0,3.0,37,0.00,CLR,,0.00,WeatherDisplay:10.37,2013-01-22 01:55:00,
2013-01-21 19:00:00,57.4,31.3,30.09,SSW,210,0.0,2.0,37,0.00,CLR,,0.00,WeatherDisplay:10.37,2013-01-22 02:00:00,
2013-01-21 19:05:00,57.4,32.0,30.09,SW,215,2.0,5.0,38,0.00,CLR,,0.00,WeatherDisplay:10.37,2013-01-22 02:05:00,
2013-01-21 19:10:00,57.4,32.0,30.10,WSW,237,0.0,0.0,38,0.00,CLR,,0.00,WeatherDisplay:10.37,2013-01-22 02:10:00,
2013-01-21 19:20:00,57.2,31.1,30.09,WNW,292,0.0,0.0,37,0.00,CLR,,0.00,WeatherDisplay:10.37,2013-01-22 02:20:00,
2013-01-21 19:30:00,57.0,31.6,30.10,WNW,292,0.0,0.0,38,0.00,CLR,,0.00,WeatherDisplay:10.37,2013-01-22 02:30:00,
2013-01-21 19:40:00,56.5,31.2,30.10,WNW,292,0.0,0.0,38,0.00,CLR,,0.00,WeatherDisplay:10.37,2013-01-22 02:40:00,
2013-01-21 19:45:00,56.5,31.2,30.10,WNW,292,0.0,0.0,38,0.00,CLR,,0.00,WeatherDisplay:10.37,2013-01-22 02:45:00,
2013-01-21 19:50:00,56.0,30.7,30.10,WNW,292,0.0,0.0,38,0.00,CLR,,0.00,WeatherDisplay:10.37,2013-01-22 02:50:00,
2013-01-21 19:55:00,55.8,30.5,30.10,WNW,292,0.0,0.0,38,0.00,CLR,,0.00,WeatherDisplay:10.37,2013-01-22 02:55:00,
2013-01-21 20:00:00,55.4,30.8,30.10,WNW,292,0.0,0.0,39,0.00,CLR,,0.00,WeatherDisplay:10.37,2013-01-22 03:00:00,
2013-01-21 20:05:00,55.2,30.7,30.10,WNW,287,0.0,0.0,39,0.00,CLR,,0.00,WeatherDisplay:10.37,2013-01-22 03:05:00,
2013-01-21 20:10:00,55.0,30.5,30.10,West,276,0.0,0.0,39,0.00,CLR,,0.00,WeatherDisplay:10.37,2013-01-22 03:10:00,
2013-01-21 20:20:00,54.5,30.6,30.10,West,270,0.0,0.0,40,0.00,CLR,,0.00,WeatherDisplay:10.37,2013-01-22 03:20:00,
2013-01-21 20:30:00,53.9,30.7,30.11,West,270,0.0,0.0,41,0.00,CLR,,0.00,WeatherDisplay:10.37,2013-01-22 03:30:00,
2013-01-21 20:35:00,53.4,30.3,30.11,West,270,0.0,0.0,41,0.00,CLR,,0.00,WeatherDisplay:10.37,2013-01-22 03:35:00,
2013-01-21 20:40:00,53.2,30.7,30.11,West,270,0.0,0.0,42,0.00,CLR,,0.00,WeatherDisplay:10.37,2013-01-22 03:40:00,
2013-01-21 20:50:00,52.3,29.9,30.11,West,270,0.0,0.0,42,0.00,CLR,,0.00,WeatherDisplay:10.37,2013-01-22 03:50:00,
2013-01-21 21:00:00,51.7,29.9,30.12,WSW,254,1.0,2.0,43,0.00,CLR,,0.00,WeatherDisplay:10.37,2013-01-22 04:00:00,
2013-01-21 21:05:00,51.6,29.8,30.12,SW,233,0.0,0.0,43,0.00,CLR,,0.00,WeatherDisplay:10.37,2013-01-22 04:05:00,
2013-01-21 21:10:00,51.3,30.1,30.12,SW,225,0.0,3.0,44,0.00,CLR,,0.00,WeatherDisplay:10.37,2013-01-22 04:10:00,
2013-01-21 21:15:00,50.9,29.8,30.12,SW,225,0.0,0.0,44,0.00,CLR,,0.00,WeatherDisplay:10.37,2013-01-22 04:15:00,
2013-01-21 21:20:00,50.8,29.6,30.12,SW,225,0.0,0.0,44,0.00,CLR,,0.00,WeatherDisplay:10.37,2013-01-22 04:20:00,
2013-01-21 21:30:00,50.6,30.0,30.12,SW,225,0.0,0.0,45,0.00,CLR,,0.00,WeatherDisplay:10.37,2013-01-22 04:30:00,
2013-01-21 21:35:00,50.5,30.0,30.12,SW,225,0.0,0.0,45,0.00,CLR,,0.00,WeatherDisplay:10.37,2013-01-22 04:35:00,
2013-01-21 21:40:00,50.4,29.8,30.13,SW,225,0.0,0.0,45,0.00,CLR,,0.00,WeatherDisplay:10.37,2013-01-22 04:40:00,
2013-01-21 21:45:00,50.4,29.8,30.13,SW,225,0.0,0.0,45,0.00,CLR,,0.00,WeatherDisplay:10.37,2013-01-22 04:45:00,
2013-01-21 21:50:00,50.2,29.6,30.13,SW,225,0.0,0.0,45,0.00,CLR,,0.00,WeatherDisplay:10.37,2013-01-22 04:50:00,
2013-01-21 22:00:00,50.2,29.6,30.13,SW,225,0.0,0.0,45,0.00,CLR,,0.00,WeatherDisplay:10.37,2013-01-22 05:00:00,
2013-01-21 22:05:00,50.2,29.6,30.13,SW,225,0.0,0.0,45,0.00,CLR,,0.00,WeatherDisplay:10.37,2013-01-22 05:05:00,
2013-01-21 22:10:00,50.0,29.5,30.13,SW,225,0.0,0.0,45,0.00,CLR,,0.00,WeatherDisplay:10.37,2013-01-22 05:10:00,
2013-01-21 22:15:00,49.8,29.3,30.13,SW,225,0.0,0.0,45,0.00,CLR,,0.00,WeatherDisplay:10.37,2013-01-22 05:15:00,
2013-01-21 22:20:00,49.8,29.3,30.13,SW,225,0.0,0.0,45,0.00,CLR,,0.00,WeatherDisplay:10.37,2013-01-22 05:20:00,
2013-01-21 22:25:00,49.8,29.3,30.13,SW,225,0.0,0.0,45,0.00,CLR,,0.00,WeatherDisplay:10.37,2013-01-22 05:25:00,
2013-01-21 22:30:00,49.8,29.3,30.13,SW,225,0.0,0.0,45,0.00,CLR,,0.00,WeatherDisplay:10.37,2013-01-22 05:30:00,
2013-01-21 22:40:00,49.8,29.3,30.14,SW,220,0.0,0.0,45,0.00,CLR,,0.00,WeatherDisplay:10.37,2013-01-22 05:40:00,
2013-01-21 22:45:00,49.8,29.3,30.14,SW,225,0.0,0.0,45,0.00,CLR,,0.00,WeatherDisplay:10.37,2013-01-22 05:45:00,
2013-01-21 22:50:00,49.8,29.3,30.14,SW,225,0.0,0.0,45,0.00,CLR,,0.00,WeatherDisplay:10.37,2013-01-22 05:50:00,
2013-01-21 23:00:00,49.6,29.7,30.14,SW,225,0.0,0.0,46,0.00,CLR,,0.00,WeatherDisplay:10.37,2013-01-22 06:00:00,
2013-01-21 23:10:00,49.3,29.4,30.14,SW,225,0.0,0.0,46,0.00,CLR,,0.00,WeatherDisplay:10.37,2013-01-22 06:10:00,
2013-01-21 23:15:00,49.3,29.4,30.15,SW,225,0.0,0.0,46,0.00,CLR,,0.00,WeatherDisplay:10.37,2013-01-22 06:15:00,
2013-01-21 23:20:00,49.1,29.2,30.14,SW,225,0.0,0.0,46,0.00,CLR,,0.00,WeatherDisplay:10.37,2013-01-22 06:20:00,
2013-01-21 23:25:00,49.1,29.2,30.14,SW,225,0.0,0.0,46,0.00,CLR,,0.00,WeatherDisplay:10.37,2013-01-22 06:25:00,
2013-01-21 23:30:00,48.9,29.6,30.14,SW,225,0.0,0.0,47,0.00,CLR,,0.00,WeatherDisplay:10.37,2013-01-22 06:30:00,
2013-01-21 23:40:00,48.7,29.4,30.15,SW,225,0.0,0.0,47,0.00,CLR,,0.00,WeatherDisplay:10.37,2013-01-22 06:40:00,
2013-01-21 23:45:00,48.4,29.1,30.14,SW,225,0.0,0.0,47,0.00,CLR,,0.00,WeatherDisplay:10.37,2013-01-22 06:45:00,
2013-01-21 23:50:00,48.2,28.9,30.15,SW,225,0.0,0.0,47,0.00,CLR,,0.00,WeatherDisplay:10.37,2013-01-22 06:50:00,
2013-01-21 23:55:00,48.0,28.7,30.15,SW,225,0.0,0.0,47,0.00,CLR,,0.00,WeatherDisplay:10.37,2013-01-22 06:55:00,